Home > Products > Valid Products > MTR

000
SAUS44 KLIX 210352
MTRBVE
METAR KBVE 210351Z AUTO 00000KT 10SM CLR 21/18 A3001 RMK AO2 SLP162
T02110178





000
SAUS44 KLIX 210252
MTRBVE
METAR KBVE 210251Z AUTO 04004KT 10SM CLR 22/18 A3001 RMK AO2 SLP163
T02170183 53006





000
SAUS44 KLIX 210252
MTRBVE
METAR KBVE 210251Z AUTO 04004KT 10SM CLR 22/18 A3001 RMK AO2 SLP163
T02170183 53006





000
SAUS44 KLIX 210152
MTRBVE
METAR KBVE 210151Z AUTO 04005KT 10SM CLR 22/18 A3001 RMK AO2 SLP162
T02220183





000
SAUS44 KLIX 210152
MTRBVE
METAR KBVE 210151Z AUTO 04005KT 10SM CLR 22/18 A3001 RMK AO2 SLP162
T02220183





000
SAUS44 KLIX 210052
MTRBVE
METAR KBVE 210051Z AUTO 03005KT 10SM CLR 22/18 A3000 RMK AO2 SLP157
T02220183





000
SAUS44 KLIX 202352
MTRBVE
METAR KBVE 202351Z AUTO 03005KT 10SM CLR 22/19 A3000 RMK AO2 SLP157
T02220189 10261 20222 53001





000
SAUS44 KLIX 202252
MTRBVE
METAR KBVE 202251Z AUTO 04006KT 10SM CLR 23/19 A2999 RMK AO2 SLP154
T02280189





000
SAUS44 KLIX 202252
MTRBVE
METAR KBVE 202251Z AUTO 04006KT 10SM CLR 23/19 A2999 RMK AO2 SLP154
T02280189





000
SAUS44 KLIX 202152
MTRBVE
METAR KBVE 202151Z AUTO 05006KT 10SM CLR 23/19 A2998 RMK AO2 SLP153
T02330189





000
SAUS44 KLIX 202152
MTRBVE
METAR KBVE 202151Z AUTO 05006KT 10SM CLR 23/19 A2998 RMK AO2 SLP153
T02330189





000
SAUS44 KLIX 202052
MTRBVE
METAR KBVE 202051Z AUTO 04008KT 10SM CLR 24/19 A2999 RMK AO2 SLP156
T02390189 56013





000
SAUS44 KLIX 201952
MTRBVE
METAR KBVE 201951Z AUTO 04007KT 10SM CLR 24/19 A3000 RMK AO2 SLP158
T02440194





000
SAUS44 KLIX 201855 COR
MTRBVE
METAR KBVE 201851Z AUTO 04008KT 10SM CLR 24/18 A3000 RMK AO2 SLP160
T02440183





000
SAUS44 KLIX 201853 COR
MTRBVE
METAR KBVE 201851Z AUTO 04008KT 10SM CLR 24/18 A3000 RMK AO2 SLP160
T02440183





000
SAUS44 KLIX 201852
MTRBVE
METAR KBVE 201851Z AUTO 04008KT 10SM CLR 24/18 A3000 RMK AO2 SLP160
T02440183





000
SAUS44 KLIX 201752
MTRBVE
METAR KBVE 201751Z AUTO VRB05KT 10SM CLR 26/17 A3003 RMK AO2 SLP168
T02610172 10267 20206 58011





000
SAUS44 KLIX 201652
MTRBVE
METAR KBVE 201651Z AUTO 05005KT 10SM CLR 26/17 A3005 RMK AO2 SLP175
T02610172





000
SAUS44 KLIX 201553
MTRBVE
METAR KBVE 201551Z AUTO 05006KT 10SM FEW002 26/17 A3005 RMK AO2
SLP176 T02560167





000
SAUS44 KLIX 201452
MTRBVE
METAR KBVE 201451Z AUTO 07005KT 10SM CLR 24/16 A3006 RMK AO2 SLP180
T02440161 53013





000
SAUS44 KLIX 201352
MTRBVE
METAR KBVE 201351Z AUTO 07003KT 10SM CLR 24/17 A3005 RMK AO2 SLP176
T02390172





000
SAUS44 KLIX 201252
MTRBVE
METAR KBVE 201251Z AUTO 00000KT 10SM CLR 22/18 A3003 RMK AO2 SLP170
T02170178





000
SAUS44 KLIX 201152
MTRBVE
METAR KBVE 201151Z AUTO 00000KT 10SM CLR 21/17 A3003 RMK AO2 SLP167
T02110172 10217 20206 53002





000
SAUS44 KLIX 201052
MTRBVE
METAR KBVE 201051Z AUTO 06004KT 10SM CLR 22/17 A3002 RMK AO2 SLP164
T02170167





000
SAUS44 KLIX 200952
MTRBVE
METAR KBVE 200951Z AUTO 08003KT 10SM CLR 21/17 A3002 RMK AO2 SLP164
T02110167





000
SAUS44 KLIX 200952
MTRBVE
METAR KBVE 200951Z AUTO 08003KT 10SM CLR 21/17 A3002 RMK AO2 SLP164
T02110167





000
SAUS44 KLIX 200852
MTRBVE
METAR KBVE 200851Z AUTO 07003KT 10SM CLR 21/16 A3002 RMK AO2 SLP165
T02110161 58011





000
SAUS44 KLIX 200753
MTRBVE
METAR KBVE 200751Z AUTO 00000KT 10SM CLR 21/16 A3003 RMK AO2 SLP169
T02110161





000
SAUS44 KLIX 200753
MTRBVE
METAR KBVE 200751Z AUTO 00000KT 10SM CLR 21/16 A3003 RMK AO2 SLP169
T02110161





000
SAUS44 KLIX 200652
MTRBVE
METAR KBVE 200651Z AUTO 09003KT 10SM CLR 21/16 A3005 RMK AO2 SLP174
T02110156





000
SAUS44 KLIX 200552
MTRBVE
METAR KBVE 200551Z AUTO 08004KT 10SM CLR 22/15 A3005 RMK AO2 SLP176
T02170150 10222 20217 402440217 58005





000
SAUS44 KLIX 200452
MTRBVE
METAR KBVE 200451Z AUTO 07005KT 10SM CLR 22/14 A3006 RMK AO2 SLP179
T02170144





000
SAUS44 KLIX 200352
MTRBVE
METAR KBVE 200351Z AUTO 07004KT 10SM CLR 22/14 A3007 RMK AO2 SLP181
T02170139





000
SAUS44 KLIX 200253
MTRBVE
METAR KBVE 200251Z AUTO 07005KT 10SM CLR 22/17 A3007 RMK AO2 SLP181
T02170167 50007





000
SAUS44 KLIX 200152
MTRBVE
METAR KBVE 200151Z AUTO 06007KT 10SM CLR 22/18 A3007 RMK AO2 SLP182
T02170178





000
SAUS44 KLIX 200052
MTRBVE
METAR KBVE 200051Z AUTO 05007KT 10SM CLR 22/18 A3005 RMK AO2 SLP176
T02170178





000
SAUS44 KLIX 192352
MTRBVE
METAR KBVE 192351Z AUTO 05006KT 10SM CLR 22/18 A3005 RMK AO2 SLP174
T02220178 10244 20222 55000





000
SAUS44 KLIX 192352
MTRBVE
METAR KBVE 192351Z AUTO 05006KT 10SM CLR 22/18 A3005 RMK AO2 SLP174
T02220178 10244 20222 55000





000
SAUS44 KLIX 192252
MTRBVE
METAR KBVE 192251Z AUTO 05006KT 10SM CLR 23/18 A3004 RMK AO2 SLP171
T02280183





000
SAUS44 KLIX 192252
MTRBVE
METAR KBVE 192251Z AUTO 05006KT 10SM CLR 23/18 A3004 RMK AO2 SLP171
T02280183





000
SAUS44 KLIX 192152
MTRBVE
METAR KBVE 192151Z AUTO 06008KT 10SM CLR 23/18 A3004 RMK AO2 SLP171
T02330183





000
SAUS44 KLIX 192052
MTRBVE
METAR KBVE 192051Z AUTO 06010KT 10SM CLR 24/18 A3005 RMK AO2 SLP174
T02390183 56013





000
SAUS44 KLIX 192015
MTRBVE
SPECI KBVE 192014Z AUTO 07009KT 10SM SCT024 24/18 A3005 RMK AO2
T02390183





000
SAUS44 KLIX 191952
MTRBVE
METAR KBVE 191951Z AUTO 06008KT 10SM BKN025 24/18 A3005 RMK AO2
SLP175 T02440183





000
SAUS44 KLIX 191852
MTRBVE
METAR KBVE 191851Z AUTO 05010KT 10SM BKN025 24/18 A3006 RMK AO2
SLP180 T02390183





000
SAUS44 KLIX 191827
MTRBVE
SPECI KBVE 191826Z AUTO 06011KT 10SM BKN025 24/18 A3007 RMK AO2
T02390178





000
SAUS44 KLIX 191752
MTRBVE
METAR KBVE 191751Z AUTO 07010KT 10SM SCT024 24/18 A3008 RMK AO2
SLP187 T02390178 10244 20222 58005





000
SAUS44 KLIX 191717
MTRBVE
SPECI KBVE 191716Z AUTO 07011KT 10SM FEW025 24/17 A3009 RMK AO2
T02390172





000
SAUS44 KLIX 191652
MTRBVE
METAR KBVE 191651Z AUTO 06011G17KT 10SM OVC024 23/18 A3010 RMK AO2
SLP191 T02330178





000
SAUS44 KLIX 191622
MTRBVE
SPECI KBVE 191621Z AUTO 06012G16KT 10SM BKN023 24/18 A3010 RMK AO2
T02390183





000
SAUS44 KLIX 191552
MTRBVE
METAR KBVE 191551Z AUTO 05011G17KT 10SM FEW022 23/18 A3010 RMK AO2
SLP193 T02330183





000
SAUS44 KLIX 191452
MTRBVE
METAR KBVE 191451Z AUTO 06008G15KT 10SM CLR 23/17 A3010 RMK AO2
SLP192 T02280172 51016





000
SAUS44 KLIX 191352
MTRBVE
METAR KBVE 191351Z AUTO 05012KT 10SM CLR 22/17 A3009 RMK AO2 SLP189
T02220167





000
SAUS44 KLIX 191252
MTRBVE
METAR KBVE 191251Z AUTO 06010G16KT 10SM CLR 22/17 A3007 RMK AO2
SLP182 T02220167





000
SAUS44 KLIX 191153
MTRBVE
METAR KBVE 191151Z AUTO 06010G16KT 10SM FEW028 BKN049 22/16 A3005
RMK AO2 SLP176 T02220161 10239 20222 51010





000
SAUS44 KLIX 191125
MTRBVE
SPECI KBVE 191124Z AUTO 06010KT 10SM OVC029 22/17 A3005 RMK AO2
T02220167





000
SAUS44 KLIX 191113
MTRBVE
SPECI KBVE 191112Z AUTO 05008G17KT 10SM OVC030 22/17 A3005 RMK AO2
T02220167





000
SAUS44 KLIX 191101
MTRBVE
SPECI KBVE 191101Z AUTO 05010G16KT 10SM BKN029 22/17 A3005 RMK AO2
T02220167





000
SAUS44 KLIX 191052
MTRBVE
METAR KBVE 191051Z AUTO 05009KT 10SM SCT029 22/17 A3005 RMK AO2
SLP174 T02220167





000
SAUS44 KLIX 191030
MTRBVE
SPECI KBVE 191028Z AUTO 05010G17KT 10SM SCT028 22/17 A3004 RMK AO2
T02220167





000
SAUS44 KLIX 190952
MTRBVE
METAR KBVE 190951Z AUTO 05010G15KT 10SM OVC028 22/17 A3004 RMK AO2
SLP170 T02220167





000
SAUS44 KLIX 190952
MTRBVE
METAR KBVE 190951Z AUTO 05010G15KT 10SM OVC028 22/17 A3004 RMK AO2
SLP170 T02220167





000
SAUS44 KLIX 190916
MTRBVE
SPECI KBVE 190915Z AUTO 05010G17KT 10SM BKN027 22/17 A3003 RMK AO2
T02220167





000
SAUS44 KLIX 190852
MTRBVE
METAR KBVE 190851Z AUTO 04009G16KT 10SM CLR 23/17 A3002 RMK AO2
SLP166 T02280172 58002





000
SAUS44 KLIX 190752
MTRBVE
METAR KBVE 190751Z AUTO 04010G18KT 10SM CLR 23/17 A3002 RMK AO2
SLP166 T02280172





000
SAUS44 KLIX 190652
MTRBVE
METAR KBVE 190651Z AUTO 04009KT 10SM CLR 23/18 A3003 RMK AO2 SLP169
T02330183





000
SAUS44 KLIX 190552
MTRBVE
METAR KBVE 190551Z AUTO 30005KT 10SM SCT029 SCT048 BKN060 22/19
A3003 RMK AO2 SLP167 T02220194 10233 20211 402780194 52003





000
SAUS44 KLIX 190452
MTRBVE
METAR KBVE 190451Z AUTO 30004KT 10SM SCT043 BKN050 22/19 A3003 RMK
AO2 SLP167 T02170194





000
SAUS44 KLIX 190452
MTRBVE
METAR KBVE 190451Z AUTO 30004KT 10SM SCT043 BKN050 22/19 A3003 RMK
AO2 SLP167 T02170194





000
SAUS44 KLIX 190352
MTRBVE
METAR KBVE 190351Z AUTO 28005KT 10SM BKN050 21/19 A3002 RMK AO2
SLP164 T02110189





000
SAUS44 KLIX 190352
MTRBVE
METAR KBVE 190351Z AUTO 28005KT 10SM BKN050 21/19 A3002 RMK AO2
SLP164 T02110189





000
SAUS44 KLIX 190252
MTRBVE
METAR KBVE 190251Z AUTO 27005KT 10SM CLR 22/19 A3002 RMK AO2 SLP164
T02170189 53014





000
SAUS44 KLIX 190152
MTRBVE
METAR KBVE 190151Z AUTO 29003KT 10SM CLR 22/18 A3000 RMK AO2 SLP158
T02170183





000
SAUS44 KLIX 190052
MTRBVE
METAR KBVE 190051Z AUTO 00000KT 10SM CLR 22/18 A2999 RMK AO2 SLP155
T02220183





000
SAUS44 KLIX 182352
MTRBVE
METAR KBVE 182351Z AUTO 24003KT 10SM CLR 23/18 A2998 RMK AO2 SLP150
T02330183 10278 20233 58001





000
SAUS44 KLIX 182252
MTRBVE
METAR KBVE 182251Z AUTO 25004KT 10SM CLR 25/18 A2998 RMK AO2 SLP152
T02500178





000
SAUS44 KLIX 182152
MTRBVE
METAR KBVE 182151Z AUTO 21005KT 10SM CLR 26/17 A2998 RMK AO2 SLP151
T02560167





000
SAUS44 KLIX 182152
MTRBVE
METAR KBVE 182151Z AUTO 21005KT 10SM CLR 26/17 A2998 RMK AO2 SLP151
T02560167





000
SAUS44 KLIX 182052
MTRBVE
METAR KBVE 182051Z AUTO 22004KT 10SM CLR 26/18 A2998 RMK AO2 SLP151
T02610178 56015





000
SAUS44 KLIX 181952
MTRBVE
METAR KBVE 181951Z AUTO VRB03KT 10SM CLR 27/16 A2999 RMK AO2 SLP154
T02670156





000
SAUS44 KLIX 181952
MTRBVE
METAR KBVE 181951Z AUTO VRB03KT 10SM CLR 27/16 A2999 RMK AO2 SLP154
T02670156





000
SAUS44 KLIX 181852
MTRBVE
METAR KBVE 181851Z AUTO 29005KT 10SM CLR 27/16 A3000 RMK AO2 SLP158
T02670161





000
SAUS44 KLIX 181752
MTRBVE
METAR KBVE 181751Z AUTO VRB03KT 10SM FEW035 26/16 A3002 RMK AO2
SLP167 T02610161 10261 20194 58009





000
SAUS44 KLIX 181652
MTRBVE
METAR KBVE 181651Z AUTO VRB05KT 10SM CLR 26/18 A3004 RMK AO2 SLP172
T02610178





000
SAUS44 KLIX 181652
MTRBVE
METAR KBVE 181651Z AUTO VRB05KT 10SM CLR 26/18 A3004 RMK AO2 SLP172
T02610178





000
SAUS44 KLIX 181552
MTRBVE
METAR KBVE 181551Z AUTO 33008KT 10SM CLR 26/18 A3005 RMK AO2 SLP175
T02560178





000
SAUS44 KLIX 181552
MTRBVE
METAR KBVE 181551Z AUTO 33008KT 10SM CLR 26/18 A3005 RMK AO2 SLP175
T02560178





000
SAUS44 KLIX 181452
MTRBVE
METAR KBVE 181451Z AUTO 33007KT 10SM CLR 24/18 A3005 RMK AO2 SLP175
T02440178 51010





000
SAUS44 KLIX 181452
MTRBVE
METAR KBVE 181451Z AUTO 33007KT 10SM CLR 24/18 A3005 RMK AO2 SLP175
T02440178 51010





000
SAUS44 KLIX 181353
MTRBVE
METAR KBVE 181351Z AUTO 31003KT 10SM FEW045 23/18 A3005 RMK AO2
SLP174 T02330183





000
SAUS44 KLIX 181252
MTRBVE
METAR KBVE 181251Z AUTO 00000KT 10SM CLR 20/18 A3003 RMK AO2 SLP169
T02000183





000
SAUS44 KLIX 181153
MTRBVE
METAR KBVE 181151Z AUTO 30004KT 10SM CLR 20/17 A3002 RMK AO2 SLP165
T02000172 10211 20194 51012





000
SAUS44 KLIX 181052
MTRBVE
METAR KBVE 181051Z AUTO 31004KT 10SM CLR 21/18 A3002 RMK AO2 SLP164
T02060178





000
SAUS44 KLIX 181052
MTRBVE
METAR KBVE 181051Z AUTO 31004KT 10SM CLR 21/18 A3002 RMK AO2 SLP164
T02060178





000
SAUS44 KLIX 180952
MTRBVE
METAR KBVE 180951Z AUTO 30004KT 10SM CLR 21/18 A3000 RMK AO2 SLP159
T02060178





000
SAUS44 KLIX 180952
MTRBVE
METAR KBVE 180951Z AUTO 30004KT 10SM CLR 21/18 A3000 RMK AO2 SLP159
T02060178





000
SAUS44 KLIX 180852
MTRBVE
METAR KBVE 180851Z AUTO 31004KT 10SM CLR 21/18 A2999 RMK AO2 SLP154
T02060183 58001





000
SAUS44 KLIX 180752
MTRBVE
METAR KBVE 180751Z AUTO 30005KT 10SM CLR 20/18 A2999 RMK AO2 SLP154
T02000178





000
SAUS44 KLIX 180752
MTRBVE
METAR KBVE 180751Z AUTO 30005KT 10SM CLR 20/18 A2999 RMK AO2 SLP154
T02000178





000
SAUS44 KLIX 180652
MTRBVE
METAR KBVE 180651Z AUTO 29003KT 10SM CLR 20/18 A2999 RMK AO2 SLP155
T02000183





000
SAUS44 KLIX 180552
MTRBVE
METAR KBVE 180551Z AUTO 28003KT 10SM SCT030 21/19 A2999 RMK AO2
SLP154 T02110189 10228 20211 402670183 58004





000
SAUS44 KLIX 180456
MTRBVE
METAR KBVE 180451Z AUTO 25005KT 10SM CLR 22/18 A2999 RMK AO2 SLP156
T02170178





000
SAUS44 KLIX 180456
MTRBVE
METAR KBVE 180451Z AUTO 25005KT 10SM CLR 22/18 A2999 RMK AO2 SLP156
T02170178





    US Dept of Commerce
    National Oceanic and Atmospheric Administration
    National Weather Service
    1325 East West Highway
    Silver Spring, MD 20910
    Page Author: NWS Internet Services Team
Disclaimer
Information Quality
Credits
Glossary
Privacy Policy
Freedom of Information Act (FOIA)
About Us
Career Opportunities